sensor_id;sensor_type;location;lat;lon;timestamp;P1;durP1;ratioP1;P2;durP2;ratioP2
966;SDS011;56108;48.730;9.304;2023-06-10T00:01:06;4.63;;;4.22;;
966;SDS011;56108;48.730;9.304;2023-06-10T00:03:14;4.40;;;4.00;;
966;SDS011;56108;48.730;9.304;2023-06-10T00:05:26;6.53;;;4.63;;
966;SDS011;56108;48.730;9.304;2023-06-10T00:07:34;6.75;;;4.55;;
966;SDS011;56108;48.730;9.304;2023-06-10T00:09:43;6.88;;;4.60;;
966;SDS011;56108;48.730;9.304;2023-06-10T00:11:51;4.78;;;4.05;;
966;SDS011;56108;48.730;9.304;2023-06-10T00:13:59;6.05;;;4.38;;
966;SDS011;56108;48.730;9.304;2023-06-10T00:16:07;5.20;;;4.32;;
966;SDS011;56108;48.730;9.304;2023-06-10T00:18:16;6.05;;;4.28;;
966;SDS011;56108;48.730;9.304;2023-06-10T00:20:29;5.78;;;3.95;;
966;SDS011;56108;48.730;9.304;2023-06-10T00:22:40;4.20;;;3.83;;
966;SDS011;56108;48.730;9.304;2023-06-10T00:24:50;4.32;;;3.97;;
966;SDS011;56108;48.730;9.304;2023-06-10T00:26:58;4.10;;;3.80;;
966;SDS011;56108;48.730;9.304;2023-06-10T00:29:06;4.38;;;3.75;;
966;SDS011;56108;48.730;9.304;2023-06-10T00:31:15;5.65;;;4.43;;
966;SDS011;56108;48.730;9.304;2023-06-10T00:33:23;5.70;;;5.20;;
966;SDS011;56108;48.730;9.304;2023-06-10T00:35:33;4.10;;;3.70;;
966;SDS011;56108;48.730;9.304;2023-06-10T00:37:41;4.80;;;3.90;;
966;SDS011;56108;48.730;9.304;2023-06-10T00:39:50;4.60;;;4.05;;
966;SDS011;56108;48.730;9.304;2023-06-10T00:41:58;4.68;;;3.35;;
966;SDS011;56108;48.730;9.304;2023-06-10T00:44:06;3.70;;;3.40;;
966;SDS011;56108;48.730;9.304;2023-06-10T00:46:14;3.85;;;3.42;;
966;SDS011;56108;48.730;9.304;2023-06-10T00:48:23;4.18;;;3.75;;
966;SDS011;56108;48.730;9.304;2023-06-10T00:50:36;4.00;;;3.45;;
966;SDS011;56108;48.730;9.304;2023-06-10T00:52:46;6.15;;;4.80;;
966;SDS011;56108;48.730;9.304;2023-06-10T00:54:59;3.45;;;3.15;;
966;SDS011;56108;48.730;9.304;2023-06-10T00:57:07;5.75;;;4.18;;
966;SDS011;56108;48.730;9.304;2023-06-10T00:59:15;5.80;;;5.03;;
966;SDS011;56108;48.730;9.304;2023-06-10T01:01:23;4.78;;;4.32;;
966;SDS011;56108;48.730;9.304;2023-06-10T01:03:32;6.50;;;4.68;;
966;SDS011;56108;48.730;9.304;2023-06-10T01:05:44;6.40;;;4.85;;
966;SDS011;56108;48.730;9.304;2023-06-10T01:08:01;5.53;;;4.03;;
966;SDS011;56108;48.730;9.304;2023-06-10T01:10:16;4.28;;;3.88;;
966;SDS011;56108;48.730;9.304;2023-06-10T01:12:33;6.38;;;4.97;;
966;SDS011;56108;48.730;9.304;2023-06-10T01:14:47;4.18;;;3.85;;
966;SDS011;56108;48.730;9.304;2023-06-10T01:16:57;4.53;;;4.13;;
966;SDS011;56108;48.730;9.304;2023-06-10T01:19:06;7.20;;;4.78;;
966;SDS011;56108;48.730;9.304;2023-06-10T01:21:19;4.72;;;4.32;;
966;SDS011;56108;48.730;9.304;2023-06-10T01:23:29;5.88;;;4.53;;
966;SDS011;56108;48.730;9.304;2023-06-10T01:25:38;5.53;;;4.60;;
966;SDS011;56108;48.730;9.304;2023-06-10T01:27:49;5.10;;;4.43;;
966;SDS011;56108;48.730;9.304;2023-06-10T01:29:58;6.90;;;5.25;;
966;SDS011;56108;48.730;9.304;2023-06-10T01:32:12;5.75;;;4.32;;
966;SDS011;56108;48.730;9.304;2023-06-10T01:34:25;5.78;;;5.18;;
966;SDS011;56108;48.730;9.304;2023-06-10T01:36:38;5.30;;;4.80;;
966;SDS011;56108;48.730;9.304;2023-06-10T01:38:48;5.85;;;4.93;;
966;SDS011;56108;48.730;9.304;2023-06-10T01:40:57;7.38;;;5.15;;
966;SDS011;56108;48.730;9.304;2023-06-10T01:43:06;4.50;;;4.10;;
966;SDS011;56108;48.730;9.304;2023-06-10T01:45:16;5.75;;;4.55;;
966;SDS011;56108;48.730;9.304;2023-06-10T01:47:24;5.85;;;4.80;;
966;SDS011;56108;48.730;9.304;2023-06-10T01:49:32;7.00;;;4.32;;
966;SDS011;56108;48.730;9.304;2023-06-10T01:51:43;5.57;;;4.85;;
966;SDS011;56108;48.730;9.304;2023-06-10T01:53:51;4.80;;;4.40;;
966;SDS011;56108;48.730;9.304;2023-06-10T01:55:59;5.25;;;4.75;;
966;SDS011;56108;48.730;9.304;2023-06-10T01:58:07;5.47;;;4.00;;
966;SDS011;56108;48.730;9.304;2023-06-10T02:00:15;4.90;;;4.28;;
966;SDS011;56108;48.730;9.304;2023-06-10T02:02:27;7.22;;;4.40;;
966;SDS011;56108;48.730;9.304;2023-06-10T02:04:36;4.70;;;4.30;;
966;SDS011;56108;48.730;9.304;2023-06-10T02:06:46;6.40;;;4.53;;
966;SDS011;56108;48.730;9.304;2023-06-10T02:08:55;6.00;;;3.92;;
966;SDS011;56108;48.730;9.304;2023-06-10T02:11:05;4.15;;;3.85;;
966;SDS011;56108;48.730;9.304;2023-06-10T02:13:14;5.45;;;3.90;;
966;SDS011;56108;48.730;9.304;2023-06-10T02:15:23;6.50;;;4.72;;
966;SDS011;56108;48.730;9.304;2023-06-10T02:17:31;4.55;;;4.15;;
966;SDS011;56108;48.730;9.304;2023-06-10T02:19:39;5.45;;;4.65;;
966;SDS011;56108;48.730;9.304;2023-06-10T02:21:57;4.32;;;3.85;;
966;SDS011;56108;48.730;9.304;2023-06-10T02:24:06;6.45;;;4.20;;
966;SDS011;56108;48.730;9.304;2023-06-10T02:26:14;6.63;;;4.88;;
966;SDS011;56108;48.730;9.304;2023-06-10T02:28:22;4.47;;;3.53;;
966;SDS011;56108;48.730;9.304;2023-06-10T02:30:30;4.00;;;3.38;;
966;SDS011;56108;48.730;9.304;2023-06-10T02:32:41;5.55;;;4.57;;
966;SDS011;56108;48.730;9.304;2023-06-10T02:34:54;4.22;;;3.72;;
966;SDS011;56108;48.730;9.304;2023-06-10T02:37:08;5.68;;;4.47;;
966;SDS011;56108;48.730;9.304;2023-06-10T02:39:16;4.00;;;3.60;;
966;SDS011;56108;48.730;9.304;2023-06-10T02:41:24;4.88;;;4.40;;
966;SDS011;56108;48.730;9.304;2023-06-10T02:43:33;4.13;;;3.72;;
966;SDS011;56108;48.730;9.304;2023-06-10T02:45:42;4.18;;;3.17;;
966;SDS011;56108;48.730;9.304;2023-06-10T02:47:51;7.28;;;4.38;;
966;SDS011;56108;48.730;9.304;2023-06-10T02:50:00;4.70;;;3.63;;
966;SDS011;56108;48.730;9.304;2023-06-10T02:52:16;5.72;;;4.55;;
966;SDS011;56108;48.730;9.304;2023-06-10T02:54:25;4.30;;;3.92;;
966;SDS011;56108;48.730;9.304;2023-06-10T02:56:34;4.10;;;3.70;;
966;SDS011;56108;48.730;9.304;2023-06-10T02:58:53;3.20;;;2.90;;
966;SDS011;56108;48.730;9.304;2023-06-10T03:01:02;4.43;;;3.63;;
966;SDS011;56108;48.730;9.304;2023-06-10T03:03:20;4.43;;;3.78;;
966;SDS011;56108;48.730;9.304;2023-06-10T03:05:38;4.25;;;3.85;;
966;SDS011;56108;48.730;9.304;2023-06-10T03:07:52;6.55;;;3.78;;
966;SDS011;56108;48.730;9.304;2023-06-10T03:10:01;5.45;;;3.88;;
966;SDS011;56108;48.730;9.304;2023-06-10T03:12:11;4.07;;;3.65;;
966;SDS011;56108;48.730;9.304;2023-06-10T03:14:22;3.45;;;3.15;;
966;SDS011;56108;48.730;9.304;2023-06-10T03:16:31;6.90;;;3.88;;
966;SDS011;56108;48.730;9.304;2023-06-10T03:18:40;4.20;;;3.63;;
966;SDS011;56108;48.730;9.304;2023-06-10T03:20:48;4.85;;;3.95;;
966;SDS011;56108;48.730;9.304;2023-06-10T03:23:00;4.65;;;4.15;;
966;SDS011;56108;48.730;9.304;2023-06-10T03:25:08;4.18;;;3.80;;
966;SDS011;56108;48.730;9.304;2023-06-10T03:27:21;4.82;;;4.35;;
966;SDS011;56108;48.730;9.304;2023-06-10T03:29:36;5.05;;;4.55;;
966;SDS011;56108;48.730;9.304;2023-06-10T03:31:44;6.53;;;4.72;;
966;SDS011;56108;48.730;9.304;2023-06-10T03:33:53;4.45;;;3.85;;
966;SDS011;56108;48.730;9.304;2023-06-10T03:36:04;4.00;;;3.70;;
966;SDS011;56108;48.730;9.304;2023-06-10T03:38:16;5.00;;;2.85;;
966;SDS011;56108;48.730;9.304;2023-06-10T03:40:25;3.88;;;3.10;;
966;SDS011;56108;48.730;9.304;2023-06-10T03:42:36;4.10;;;3.70;;
966;SDS011;56108;48.730;9.304;2023-06-10T03:44:50;3.92;;;3.53;;
966;SDS011;56108;48.730;9.304;2023-06-10T03:46:58;5.35;;;4.20;;
966;SDS011;56108;48.730;9.304;2023-06-10T03:49:07;4.72;;;3.70;;
966;SDS011;56108;48.730;9.304;2023-06-10T03:51:16;4.43;;;3.70;;
966;SDS011;56108;48.730;9.304;2023-06-10T03:53:27;3.75;;;3.42;;
966;SDS011;56108;48.730;9.304;2023-06-10T03:55:36;3.65;;;3.05;;
966;SDS011;56108;48.730;9.304;2023-06-10T03:57:44;5.65;;;4.75;;
966;SDS011;56108;48.730;9.304;2023-06-10T03:59:53;6.55;;;3.70;;
966;SDS011;56108;48.730;9.304;2023-06-10T04:02:01;5.22;;;3.50;;
966;SDS011;56108;48.730;9.304;2023-06-10T04:04:13;6.75;;;4.35;;
966;SDS011;56108;48.730;9.304;2023-06-10T04:06:23;4.90;;;4.40;;
966;SDS011;56108;48.730;9.304;2023-06-10T04:08:36;4.63;;;4.22;;
966;SDS011;56108;48.730;9.304;2023-06-10T04:10:45;5.80;;;4.40;;
966;SDS011;56108;48.730;9.304;2023-06-10T04:12:55;6.38;;;5.20;;
966;SDS011;56108;48.730;9.304;2023-06-10T04:15:08;6.55;;;5.30;;
966;SDS011;56108;48.730;9.304;2023-06-10T04:17:18;7.22;;;5.13;;
966;SDS011;56108;48.730;9.304;2023-06-10T04:19:26;5.88;;;5.30;;
966;SDS011;56108;48.730;9.304;2023-06-10T04:21:36;6.18;;;5.60;;
966;SDS011;56108;48.730;9.304;2023-06-10T04:23:47;8.38;;;5.68;;
966;SDS011;56108;48.730;9.304;2023-06-10T04:25:56;7.15;;;6.32;;
966;SDS011;56108;48.730;9.304;2023-06-10T04:28:05;9.40;;;5.47;;
966;SDS011;56108;48.730;9.304;2023-06-10T04:30:14;5.63;;;5.10;;
966;SDS011;56108;48.730;9.304;2023-06-10T04:32:24;7.00;;;5.53;;
966;SDS011;56108;48.730;9.304;2023-06-10T04:34:32;5.50;;;4.90;;
966;SDS011;56108;48.730;9.304;2023-06-10T04:36:40;4.20;;;3.80;;
966;SDS011;56108;48.730;9.304;2023-06-10T04:38:52;5.33;;;4.83;;
966;SDS011;56108;48.730;9.304;2023-06-10T04:41:00;5.27;;;4.77;;
966;SDS011;56108;48.730;9.304;2023-06-10T04:43:11;5.23;;;4.73;;
966;SDS011;56108;48.730;9.304;2023-06-10T04:45:22;5.80;;;4.30;;
966;SDS011;56108;48.730;9.304;2023-06-10T04:47:32;5.30;;;4.80;;
966;SDS011;56108;48.730;9.304;2023-06-10T04:49:42;5.67;;;5.10;;
966;SDS011;56108;48.730;9.304;2023-06-10T04:51:55;5.77;;;4.70;;
966;SDS011;56108;48.730;9.304;2023-06-10T04:54:15;5.03;;;4.53;;
966;SDS011;56108;48.730;9.304;2023-06-10T04:56:23;4.80;;;4.30;;
966;SDS011;56108;48.730;9.304;2023-06-10T04:58:33;5.13;;;4.70;;
966;SDS011;56108;48.730;9.304;2023-06-10T05:00:41;5.60;;;5.10;;
966;SDS011;56108;48.730;9.304;2023-06-10T05:02:50;5.63;;;5.13;;
966;SDS011;56108;48.730;9.304;2023-06-10T05:04:58;4.67;;;4.27;;
966;SDS011;56108;48.730;9.304;2023-06-10T05:07:06;4.70;;;4.30;;
966;SDS011;56108;48.730;9.304;2023-06-10T05:09:17;4.60;;;4.20;;
966;SDS011;56108;48.730;9.304;2023-06-10T05:11:25;4.20;;;3.90;;
966;SDS011;56108;48.730;9.304;2023-06-10T05:13:33;5.03;;;4.63;;
966;SDS011;56108;48.730;9.304;2023-06-10T05:15:43;5.03;;;4.63;;
966;SDS011;56108;48.730;9.304;2023-06-10T05:17:52;5.33;;;4.83;;
966;SDS011;56108;48.730;9.304;2023-06-10T05:20:00;4.70;;;4.30;;
966;SDS011;56108;48.730;9.304;2023-06-10T05:22:08;4.97;;;4.50;;
966;SDS011;56108;48.730;9.304;2023-06-10T05:24:19;4.50;;;4.20;;
966;SDS011;56108;48.730;9.304;2023-06-10T05:26:27;5.20;;;4.70;;
966;SDS011;56108;48.730;9.304;2023-06-10T05:28:37;5.77;;;5.27;;
966;SDS011;56108;48.730;9.304;2023-06-10T05:30:46;4.60;;;4.20;;
966;SDS011;56108;48.730;9.304;2023-06-10T05:32:54;4.97;;;4.57;;
966;SDS011;56108;48.730;9.304;2023-06-10T05:35:04;5.10;;;4.60;;
966;SDS011;56108;48.730;9.304;2023-06-10T05:37:13;5.70;;;5.20;;
966;SDS011;56108;48.730;9.304;2023-06-10T05:39:23;5.90;;;4.77;;
966;SDS011;56108;48.730;9.304;2023-06-10T05:41:31;4.90;;;4.40;;
966;SDS011;56108;48.730;9.304;2023-06-10T05:43:39;5.20;;;4.80;;
966;SDS011;56108;48.730;9.304;2023-06-10T05:45:48;5.13;;;4.63;;
966;SDS011;56108;48.730;9.304;2023-06-10T05:47:56;4.43;;;4.03;;
966;SDS011;56108;48.730;9.304;2023-06-10T05:50:06;4.20;;;3.90;;
966;SDS011;56108;48.730;9.304;2023-06-10T05:52:15;5.00;;;4.50;;
966;SDS011;56108;48.730;9.304;2023-06-10T05:54:25;3.90;;;3.57;;
966;SDS011;56108;48.730;9.304;2023-06-10T05:56:33;5.07;;;4.40;;
966;SDS011;56108;48.730;9.304;2023-06-10T05:58:42;3.90;;;3.47;;
966;SDS011;56108;48.730;9.304;2023-06-10T06:00:52;4.67;;;4.27;;
966;SDS011;56108;48.730;9.304;2023-06-10T06:03:00;4.20;;;3.80;;
966;SDS011;56108;48.730;9.304;2023-06-10T06:05:08;4.50;;;4.20;;
966;SDS011;56108;48.730;9.304;2023-06-10T06:07:17;4.20;;;3.83;;
966;SDS011;56108;48.730;9.304;2023-06-10T06:09:29;4.00;;;3.70;;
966;SDS011;56108;48.730;9.304;2023-06-10T06:11:37;3.63;;;3.33;;
966;SDS011;56108;48.730;9.304;2023-06-10T06:13:45;4.77;;;4.40;;
966;SDS011;56108;48.730;9.304;2023-06-10T06:15:57;2.80;;;2.57;;
966;SDS011;56108;48.730;9.304;2023-06-10T06:18:08;3.13;;;2.93;;
966;SDS011;56108;48.730;9.304;2023-06-10T06:20:18;3.80;;;3.50;;
966;SDS011;56108;48.730;9.304;2023-06-10T06:22:28;3.67;;;3.37;;
966;SDS011;56108;48.730;9.304;2023-06-10T06:24:39;3.47;;;3.27;;
966;SDS011;56108;48.730;9.304;2023-06-10T06:26:47;3.40;;;3.10;;
966;SDS011;56108;48.730;9.304;2023-06-10T06:28:55;4.00;;;3.70;;
966;SDS011;56108;48.730;9.304;2023-06-10T06:31:04;4.20;;;3.83;;
966;SDS011;56108;48.730;9.304;2023-06-10T06:33:12;3.97;;;3.67;;
966;SDS011;56108;48.730;9.304;2023-06-10T06:35:20;4.73;;;4.33;;
966;SDS011;56108;48.730;9.304;2023-06-10T06:37:32;4.00;;;3.70;;
966;SDS011;56108;48.730;9.304;2023-06-10T06:39:57;3.23;;;2.93;;
966;SDS011;56108;48.730;9.304;2023-06-10T06:42:08;3.87;;;3.57;;
966;SDS011;56108;48.730;9.304;2023-06-10T06:44:29;4.27;;;3.43;;
966;SDS011;56108;48.730;9.304;2023-06-10T06:46:37;4.07;;;3.67;;
966;SDS011;56108;48.730;9.304;2023-06-10T06:48:46;5.40;;;3.67;;
966;SDS011;56108;48.730;9.304;2023-06-10T06:50:54;5.03;;;3.40;;
966;SDS011;56108;48.730;9.304;2023-06-10T06:53:03;3.90;;;3.60;;
966;SDS011;56108;48.730;9.304;2023-06-10T06:55:14;3.57;;;3.20;;
966;SDS011;56108;48.730;9.304;2023-06-10T06:57:22;3.73;;;3.43;;
966;SDS011;56108;48.730;9.304;2023-06-10T06:59:31;3.87;;;3.50;;
966;SDS011;56108;48.730;9.304;2023-06-10T07:01:39;3.70;;;3.40;;
966;SDS011;56108;48.730;9.304;2023-06-10T07:03:50;4.17;;;3.77;;
966;SDS011;56108;48.730;9.304;2023-06-10T07:05:58;3.77;;;3.47;;
966;SDS011;56108;48.730;9.304;2023-06-10T07:08:06;3.50;;;3.20;;
966;SDS011;56108;48.730;9.304;2023-06-10T07:10:17;3.57;;;3.27;;
966;SDS011;56108;48.730;9.304;2023-06-10T07:12:27;4.23;;;3.20;;
966;SDS011;56108;48.730;9.304;2023-06-10T07:14:36;4.70;;;3.10;;
966;SDS011;56108;48.730;9.304;2023-06-10T07:16:44;3.10;;;2.83;;
966;SDS011;56108;48.730;9.304;2023-06-10T07:18:53;3.93;;;3.53;;
966;SDS011;56108;48.730;9.304;2023-06-10T07:21:01;3.50;;;3.30;;
966;SDS011;56108;48.730;9.304;2023-06-10T07:23:10;3.03;;;2.83;;
966;SDS011;56108;48.730;9.304;2023-06-10T07:25:21;3.50;;;3.20;;
966;SDS011;56108;48.730;9.304;2023-06-10T07:27:29;3.43;;;3.13;;
966;SDS011;56108;48.730;9.304;2023-06-10T07:29:37;3.50;;;3.20;;
966;SDS011;56108;48.730;9.304;2023-06-10T07:31:46;3.90;;;3.43;;
966;SDS011;56108;48.730;9.304;2023-06-10T07:33:53;3.07;;;2.87;;
966;SDS011;56108;48.730;9.304;2023-06-10T07:36:01;3.23;;;3.00;;
966;SDS011;56108;48.730;9.304;2023-06-10T07:38:10;3.50;;;3.07;;
966;SDS011;56108;48.730;9.304;2023-06-10T07:40:21;3.90;;;3.50;;
966;SDS011;56108;48.730;9.304;2023-06-10T07:42:31;2.87;;;2.60;;
966;SDS011;56108;48.730;9.304;2023-06-10T07:44:39;4.17;;;3.47;;
966;SDS011;56108;48.730;9.304;2023-06-10T07:46:48;2.80;;;2.50;;
966;SDS011;56108;48.730;9.304;2023-06-10T07:48:56;3.13;;;2.93;;
966;SDS011;56108;48.730;9.304;2023-06-10T07:51:04;3.60;;;3.30;;
966;SDS011;56108;48.730;9.304;2023-06-10T07:53:13;3.60;;;3.30;;
966;SDS011;56108;48.730;9.304;2023-06-10T07:55:24;3.23;;;2.93;;
966;SDS011;56108;48.730;9.304;2023-06-10T07:57:33;2.87;;;2.67;;
966;SDS011;56108;48.730;9.304;2023-06-10T07:59:43;4.00;;;3.60;;
966;SDS011;56108;48.730;9.304;2023-06-10T08:01:52;4.30;;;3.40;;
966;SDS011;56108;48.730;9.304;2023-06-10T08:04:01;3.50;;;3.20;;
966;SDS011;56108;48.730;9.304;2023-06-10T08:06:09;3.50;;;3.20;;
966;SDS011;56108;48.730;9.304;2023-06-10T08:08:18;3.57;;;3.27;;
966;SDS011;56108;48.730;9.304;2023-06-10T08:10:29;3.50;;;3.20;;
966;SDS011;56108;48.730;9.304;2023-06-10T08:12:37;3.13;;;2.93;;
966;SDS011;56108;48.730;9.304;2023-06-10T08:14:45;3.70;;;3.40;;
966;SDS011;56108;48.730;9.304;2023-06-10T08:16:53;3.80;;;3.40;;
966;SDS011;56108;48.730;9.304;2023-06-10T08:19:01;3.93;;;3.40;;
966;SDS011;56108;48.730;9.304;2023-06-10T08:21:10;3.00;;;2.80;;
966;SDS011;56108;48.730;9.304;2023-06-10T08:23:18;4.07;;;3.77;;
966;SDS011;56108;48.730;9.304;2023-06-10T08:25:29;3.80;;;3.50;;
966;SDS011;56108;48.730;9.304;2023-06-10T08:27:37;3.70;;;3.40;;
966;SDS011;56108;48.730;9.304;2023-06-10T08:29:45;3.73;;;3.43;;
966;SDS011;56108;48.730;9.304;2023-06-10T08:31:53;3.40;;;3.10;;
966;SDS011;56108;48.730;9.304;2023-06-10T08:34:04;3.40;;;3.10;;
966;SDS011;56108;48.730;9.304;2023-06-10T08:36:12;3.97;;;3.60;;
966;SDS011;56108;48.730;9.304;2023-06-10T08:38:21;3.57;;;3.27;;
966;SDS011;56108;48.730;9.304;2023-06-10T08:40:33;4.80;;;4.40;;
966;SDS011;56108;48.730;9.304;2023-06-10T08:42:43;3.97;;;3.60;;
966;SDS011;56108;48.730;9.304;2023-06-10T08:44:55;3.77;;;3.43;;
966;SDS011;56108;48.730;9.304;2023-06-10T08:47:10;4.37;;;3.80;;
966;SDS011;56108;48.730;9.304;2023-06-10T08:49:22;3.70;;;3.33;;
966;SDS011;56108;48.730;9.304;2023-06-10T08:51:33;3.77;;;3.43;;
966;SDS011;56108;48.730;9.304;2023-06-10T08:53:44;4.27;;;3.93;;
966;SDS011;56108;48.730;9.304;2023-06-10T08:56:03;3.30;;;3.00;;
966;SDS011;56108;48.730;9.304;2023-06-10T08:58:12;4.43;;;3.30;;
966;SDS011;56108;48.730;9.304;2023-06-10T09:00:21;3.57;;;3.27;;
966;SDS011;56108;48.730;9.304;2023-06-10T09:02:31;3.40;;;3.10;;
966;SDS011;56108;48.730;9.304;2023-06-10T09:04:41;4.60;;;3.73;;
966;SDS011;56108;48.730;9.304;2023-06-10T09:06:50;4.40;;;4.00;;
966;SDS011;56108;48.730;9.304;2023-06-10T09:09:00;4.00;;;3.60;;
966;SDS011;56108;48.730;9.304;2023-06-10T09:11:10;3.77;;;3.43;;
966;SDS011;56108;48.730;9.304;2023-06-10T09:13:19;3.53;;;3.33;;
966;SDS011;56108;48.730;9.304;2023-06-10T09:15:27;3.80;;;3.40;;
966;SDS011;56108;48.730;9.304;2023-06-10T09:17:37;5.17;;;4.07;;
966;SDS011;56108;48.730;9.304;2023-06-10T09:19:45;4.13;;;3.53;;
966;SDS011;56108;48.730;9.304;2023-06-10T09:21:55;4.30;;;3.20;;
966;SDS011;56108;48.730;9.304;2023-06-10T09:24:03;3.47;;;3.17;;
966;SDS011;56108;48.730;9.304;2023-06-10T09:26:15;3.50;;;3.20;;
966;SDS011;56108;48.730;9.304;2023-06-10T09:28:24;3.37;;;3.07;;
966;SDS011;56108;48.730;9.304;2023-06-10T09:30:33;4.03;;;3.50;;
966;SDS011;56108;48.730;9.304;2023-06-10T09:32:42;3.43;;;3.07;;
966;SDS011;56108;48.730;9.304;2023-06-10T09:34:50;3.70;;;3.30;;
966;SDS011;56108;48.730;9.304;2023-06-10T09:36:58;3.83;;;3.53;;
966;SDS011;56108;48.730;9.304;2023-06-10T09:39:13;3.87;;;3.57;;
966;SDS011;56108;48.730;9.304;2023-06-10T09:41:25;4.07;;;3.50;;
966;SDS011;56108;48.730;9.304;2023-06-10T09:43:40;3.60;;;3.30;;
966;SDS011;56108;48.730;9.304;2023-06-10T09:45:49;3.63;;;3.27;;
966;SDS011;56108;48.730;9.304;2023-06-10T09:47:59;4.10;;;3.70;;
966;SDS011;56108;48.730;9.304;2023-06-10T09:50:08;3.80;;;3.50;;
966;SDS011;56108;48.730;9.304;2023-06-10T09:52:23;4.37;;;3.97;;
966;SDS011;56108;48.730;9.304;2023-06-10T09:54:32;3.47;;;3.17;;
966;SDS011;56108;48.730;9.304;2023-06-10T09:56:42;3.77;;;3.47;;
966;SDS011;56108;48.730;9.304;2023-06-10T09:58:53;3.10;;;2.80;;
966;SDS011;56108;48.730;9.304;2023-06-10T10:01:04;4.00;;;3.50;;
966;SDS011;56108;48.730;9.304;2023-06-10T10:03:12;3.67;;;3.37;;
966;SDS011;56108;48.730;9.304;2023-06-10T10:05:32;3.80;;;3.50;;
966;SDS011;56108;48.730;9.304;2023-06-10T10:07:40;4.07;;;3.67;;
966;SDS011;56108;48.730;9.304;2023-06-10T10:09:48;3.97;;;3.60;;
966;SDS011;56108;48.730;9.304;2023-06-10T10:11:59;4.67;;;3.57;;
966;SDS011;56108;48.730;9.304;2023-06-10T10:14:10;4.53;;;3.53;;
966;SDS011;56108;48.730;9.304;2023-06-10T10:16:20;3.53;;;3.23;;
966;SDS011;56108;48.730;9.304;2023-06-10T10:18:37;3.53;;;3.23;;
966;SDS011;56108;48.730;9.304;2023-06-10T10:20:50;4.10;;;3.70;;
966;SDS011;56108;48.730;9.304;2023-06-10T10:23:02;4.40;;;4.10;;
966;SDS011;56108;48.730;9.304;2023-06-10T10:25:12;4.40;;;3.93;;
966;SDS011;56108;48.730;9.304;2023-06-10T10:27:28;4.73;;;3.77;;
966;SDS011;56108;48.730;9.304;2023-06-10T10:29:40;3.03;;;2.80;;
966;SDS011;56108;48.730;9.304;2023-06-10T10:31:53;3.70;;;3.40;;
966;SDS011;56108;48.730;9.304;2023-06-10T10:34:07;4.57;;;4.17;;
966;SDS011;56108;48.730;9.304;2023-06-10T10:36:20;3.83;;;3.53;;
966;SDS011;56108;48.730;9.304;2023-06-10T10:38:28;2.80;;;2.53;;
966;SDS011;56108;48.730;9.304;2023-06-10T10:40:37;4.20;;;3.73;;
966;SDS011;56108;48.730;9.304;2023-06-10T10:42:51;3.30;;;3.10;;
966;SDS011;56108;48.730;9.304;2023-06-10T10:45:00;4.60;;;4.00;;
966;SDS011;56108;48.730;9.304;2023-06-10T10:47:12;3.77;;;3.47;;
966;SDS011;56108;48.730;9.304;2023-06-10T10:49:22;3.90;;;3.60;;
966;SDS011;56108;48.730;9.304;2023-06-10T10:51:33;4.10;;;3.70;;
966;SDS011;56108;48.730;9.304;2023-06-10T10:53:42;3.93;;;3.53;;
966;SDS011;56108;48.730;9.304;2023-06-10T10:55:58;3.63;;;3.33;;
966;SDS011;56108;48.730;9.304;2023-06-10T10:58:11;3.47;;;3.17;;
966;SDS011;56108;48.730;9.304;2023-06-10T11:00:24;5.37;;;3.50;;
966;SDS011;56108;48.730;9.304;2023-06-10T11:02:36;3.07;;;2.80;;
966;SDS011;56108;48.730;9.304;2023-06-10T11:04:48;3.70;;;3.40;;
966;SDS011;56108;48.730;9.304;2023-06-10T11:06:58;3.43;;;3.13;;
966;SDS011;56108;48.730;9.304;2023-06-10T11:11:37;3.07;;;2.77;;
966;SDS011;56108;48.730;9.304;2023-06-10T11:14:04;3.50;;;3.20;;
966;SDS011;56108;48.730;9.304;2023-06-10T11:16:18;3.80;;;3.10;;
966;SDS011;56108;48.730;9.304;2023-06-10T11:18:27;3.07;;;2.87;;
966;SDS011;56108;48.730;9.304;2023-06-10T11:23:05;3.77;;;3.47;;
966;SDS011;56108;48.730;9.304;2023-06-10T11:25:13;4.10;;;3.43;;
966;SDS011;56108;48.730;9.304;2023-06-10T11:27:22;4.10;;;3.70;;
966;SDS011;56108;48.730;9.304;2023-06-10T11:29:35;3.77;;;3.47;;
966;SDS011;56108;48.730;9.304;2023-06-10T11:31:44;3.80;;;3.50;;
966;SDS011;56108;48.730;9.304;2023-06-10T11:33:54;4.50;;;3.33;;
966;SDS011;56108;48.730;9.304;2023-06-10T11:36:06;3.47;;;3.17;;
966;SDS011;56108;48.730;9.304;2023-06-10T11:38:15;4.07;;;3.80;;
966;SDS011;56108;48.730;9.304;2023-06-10T11:40:23;3.93;;;3.10;;
966;SDS011;56108;48.730;9.304;2023-06-10T11:42:31;3.87;;;3.57;;
966;SDS011;56108;48.730;9.304;2023-06-10T11:44:43;3.20;;;3.00;;
966;SDS011;56108;48.730;9.304;2023-06-10T11:46:56;3.23;;;2.93;;
966;SDS011;56108;48.730;9.304;2023-06-10T11:49:05;3.40;;;3.10;;
966;SDS011;56108;48.730;9.304;2023-06-10T11:51:13;2.73;;;2.53;;
966;SDS011;56108;48.730;9.304;2023-06-10T11:53:22;3.70;;;3.40;;
966;SDS011;56108;48.730;9.304;2023-06-10T11:55:40;3.30;;;3.00;;
966;SDS011;56108;48.730;9.304;2023-06-10T11:57:49;4.60;;;3.77;;
966;SDS011;56108;48.730;9.304;2023-06-10T12:00:06;3.43;;;3.13;;
966;SDS011;56108;48.730;9.304;2023-06-10T12:02:18;4.00;;;3.70;;
966;SDS011;56108;48.730;9.304;2023-06-10T12:04:27;4.40;;;3.00;;
966;SDS011;56108;48.730;9.304;2023-06-10T12:06:38;3.37;;;3.17;;
966;SDS011;56108;48.730;9.304;2023-06-10T12:08:51;4.00;;;3.60;;
966;SDS011;56108;48.730;9.304;2023-06-10T12:11:10;3.77;;;3.37;;
966;SDS011;56108;48.730;9.304;2023-06-10T12:13:19;4.73;;;4.23;;
966;SDS011;56108;48.730;9.304;2023-06-10T12:15:31;3.43;;;3.13;;
966;SDS011;56108;48.730;9.304;2023-06-10T12:17:39;3.83;;;3.40;;
966;SDS011;56108;48.730;9.304;2023-06-10T12:19:51;4.27;;;3.70;;
966;SDS011;56108;48.730;9.304;2023-06-10T12:22:00;4.27;;;3.57;;
966;SDS011;56108;48.730;9.304;2023-06-10T12:24:09;4.50;;;4.10;;
966;SDS011;56108;48.730;9.304;2023-06-10T12:26:19;3.57;;;3.27;;
966;SDS011;56108;48.730;9.304;2023-06-10T12:28:27;4.43;;;4.03;;
966;SDS011;56108;48.730;9.304;2023-06-10T12:30:38;4.07;;;3.77;;
966;SDS011;56108;48.730;9.304;2023-06-10T12:32:47;4.37;;;3.97;;
966;SDS011;56108;48.730;9.304;2023-06-10T12:35:01;3.57;;;3.13;;
966;SDS011;56108;48.730;9.304;2023-06-10T12:37:12;3.83;;;3.43;;
966;SDS011;56108;48.730;9.304;2023-06-10T12:39:21;3.07;;;2.77;;
966;SDS011;56108;48.730;9.304;2023-06-10T12:41:30;3.20;;;2.90;;
966;SDS011;56108;48.730;9.304;2023-06-10T12:43:38;3.73;;;3.43;;
966;SDS011;56108;48.730;9.304;2023-06-10T12:45:50;3.57;;;3.27;;
966;SDS011;56108;48.730;9.304;2023-06-10T12:48:06;3.03;;;2.73;;
966;SDS011;56108;48.730;9.304;2023-06-10T12:50:15;3.40;;;3.00;;
966;SDS011;56108;48.730;9.304;2023-06-10T12:52:23;3.13;;;2.83;;
966;SDS011;56108;48.730;9.304;2023-06-10T12:54:31;3.37;;;3.07;;
966;SDS011;56108;48.730;9.304;2023-06-10T12:56:39;3.67;;;3.37;;
966;SDS011;56108;48.730;9.304;2023-06-10T12:58:47;2.63;;;2.43;;
966;SDS011;56108;48.730;9.304;2023-06-10T13:00:59;3.47;;;3.10;;
966;SDS011;56108;48.730;9.304;2023-06-10T13:03:09;3.37;;;3.07;;
966;SDS011;56108;48.730;9.304;2023-06-10T13:05:17;2.97;;;2.67;;
966;SDS011;56108;48.730;9.304;2023-06-10T13:07:26;3.33;;;3.10;;
966;SDS011;56108;48.730;9.304;2023-06-10T13:09:35;3.53;;;3.23;;
966;SDS011;56108;48.730;9.304;2023-06-10T13:11:45;3.50;;;3.07;;
966;SDS011;56108;48.730;9.304;2023-06-10T13:13:53;4.07;;;3.67;;
966;SDS011;56108;48.730;9.304;2023-06-10T13:16:04;3.23;;;2.90;;
966;SDS011;56108;48.730;9.304;2023-06-10T13:18:13;3.20;;;2.90;;
966;SDS011;56108;48.730;9.304;2023-06-10T13:20:22;3.73;;;3.23;;
966;SDS011;56108;48.730;9.304;2023-06-10T13:22:31;3.23;;;3.00;;
966;SDS011;56108;48.730;9.304;2023-06-10T13:24:41;3.67;;;3.20;;
966;SDS011;56108;48.730;9.304;2023-06-10T13:26:49;4.13;;;3.67;;
966;SDS011;56108;48.730;9.304;2023-06-10T13:28:58;5.43;;;3.47;;
966;SDS011;56108;48.730;9.304;2023-06-10T13:31:09;3.30;;;3.10;;
966;SDS011;56108;48.730;9.304;2023-06-10T13:33:17;3.40;;;3.10;;